< Cyclone 197212 1972 Season Cyclone 197215 >
Cyclone 197213 (BELINDA)
General InformationTrack Information on Google Maps || ResourceGoogle EarthGE AnimationAtom FeedGeoJSON
Detalied Best Track (Time Zone = UTC)
Year Month Day Hour Lat. Long. Pressure (hPa) Wind (kt) Class Image Chart
1972 3 20 00 -9.9 105.0 1006 0 0 -- --
1972 3 20 03 -10.2 104.7 1004 0 0 -- --
1972 3 20 06 -10.5 104.4 1002 0 0 -- --
1972 3 20 09 -10.8 104.1 1001 0 0 -- --
1972 3 20 12 -11.1 103.8 1000 0 0 -- --
1972 3 20 15 -11.3 103.5 999 0 0 -- --
1972 3 20 18 -11.5 103.3 998 0 0 -- --
1972 3 20 21 -11.6 103.1 997 0 0 -- --
1972 3 21 00 -11.7 102.9 996 0 0 -- --
1972 3 21 03 -12.1 102.7 996 0 0 -- --
1972 3 21 06 -12.5 102.6 996 0 0 -- --
1972 3 21 09 -12.9 102.5 996 0 0 -- --
1972 3 21 12 -13.3 102.4 995 0 0 -- --
1972 3 21 15 -13.6 102.3 995 0 0 -- --
1972 3 21 18 -13.7 102.2 995 0 0 -- --
1972 3 21 21 -13.8 102.1 994 0 0 -- --
1972 3 22 00 -13.9 102.0 994 0 0 -- --
1972 3 22 03 -14.0 101.5 992 0 0 -- --
1972 3 22 06 -14.1 101.0 990 0 0 -- --
1972 3 22 09 -14.2 100.5 988 0 0 -- --
1972 3 22 12 -14.3 100.0 986 0 0 -- --
1972 3 22 15 -14.4 99.5 984 0 0 -- --
1972 3 22 18 -14.5 99.0 982 0 0 -- --
1972 3 22 21 -14.7 98.8 981 0 0 -- --
1972 3 23 00 -14.9 98.5 980 0 0 -- --
1972 3 23 03 -15.2 98.2 981 0 0 -- --
1972 3 23 06 -15.5 97.9 982 0 0 -- --
1972 3 23 09 -15.7 97.7 983 0 0 -- --
1972 3 23 12 -15.9 97.4 984 0 0 -- --
1972 3 23 15 -16.1 97.1 985 0 0 -- --
1972 3 23 18 -16.3 96.8 987 0 0 -- --
1972 3 23 21 -16.5 96.5 989 0 0 -- --
1972 3 24 00 -16.7 96.1 990 0 0 -- --
1972 3 24 03 -16.9 95.7 991 0 0 -- --
1972 3 24 06 -17.2 95.2 992 0 0 -- --
1972 3 24 09 -17.5 94.7 993 0 0 -- --
1972 3 24 12 -17.8 94.2 993 0 0 -- --
1972 3 24 15 -18.1 93.7 994 0 0 -- --
1972 3 24 18 -18.4 93.2 994 0 0 -- --
1972 3 24 21 -18.7 92.8 994 0 0 -- --
1972 3 25 00 -18.9 92.5 995 0 0 -- --
1972 3 25 03 -19.0 92.2 995 0 0 -- --
1972 3 25 06 -19.1 91.9 995 0 0 -- --
1972 3 25 09 -19.2 91.6 996 0 0 -- --
1972 3 25 12 -19.3 91.3 996 0 0 -- --
1972 3 26 00 -19.7 90.5 998 0 0 -- --
1972 3 26 03 -19.8 90.5 998 0 0 -- --
1972 3 26 06 -20.0 90.5 999 0 0 -- --
1972 3 26 09 -20.2 90.5 999 0 0 -- --
1972 3 26 12 -20.4 90.6 999 0 0 -- --
1972 3 26 15 -20.6 90.7 1000 0 0 -- --
1972 3 26 18 -20.7 90.8 1000 0 0 -- --
1972 3 26 21 -20.8 90.9 1000 0 0 -- --
1972 3 27 00 -20.9 91.0 1000 0 0 -- --
1972 3 27 12 -21.3 91.0 1002 0 0 -- --
1972 3 27 15 -21.4 91.0 1003 0 0 -- --
1972 3 27 18 -21.5 91.0 1003 0 0 -- --
1972 3 27 21 -21.6 91.0 1004 0 0 -- --
1972 3 28 00 -21.7 91.0 1004 0 0 -- --
1972 3 28 18 -22.6 90.2 1005 0 0 -- --
1972 3 28 21 -22.8 90.1 1005 0 0 -- --
1972 3 29 00 -22.9 90.0 1006 0 0 -- --
1972 3 29 03 -23.1 89.9 1006 0 0 -- --
1972 3 29 06 -23.2 89.8 1007 0 0 -- --
< Cyclone 197212 1972 Season Cyclone 197215 >

Help